createdAt,value
2022-12-03T00:00:00.169Z,77.77
2022-12-03T00:02:27.335Z,77.96
2022-12-03T00:07:22.019Z,78.10
2022-12-03T00:09:49.000Z,77.75
2022-12-03T00:12:16.026Z,78.05
2022-12-03T00:14:44.879Z,77.98
2022-12-03T00:17:12.169Z,77.69
2022-12-03T00:19:39.183Z,77.82
2022-12-03T00:22:06.106Z,77.54
2022-12-03T00:24:33.158Z,77.36
2022-12-03T00:27:00.119Z,77.71
2022-12-03T00:29:27.260Z,77.68
2022-12-03T00:31:54.178Z,77.42
2022-12-03T00:34:22.817Z,77.77
2022-12-03T00:36:49.895Z,77.97
2022-12-03T00:39:17.097Z,77.81
2022-12-03T00:41:44.061Z,78.03
2022-12-03T00:44:12.000Z,77.59
2022-12-03T00:46:39.094Z,77.92
2022-12-03T00:49:06.589Z,77.83
2022-12-03T00:51:36.013Z,78.29
2022-12-03T00:54:03.200Z,77.76
2022-12-03T00:56:30.264Z,78.21
2022-12-03T00:58:57.279Z,78.05
2022-12-03T01:01:24.367Z,78.11
2022-12-03T01:03:51.496Z,77.37
2022-12-03T01:06:18.512Z,77.82
2022-12-03T01:08:45.459Z,78.03
2022-12-03T01:11:31.222Z,77.87
2022-12-03T01:13:58.378Z,78.16
2022-12-03T01:16:25.402Z,77.89
2022-12-03T01:18:53.015Z,78.12
2022-12-03T01:21:20.287Z,78.16
2022-12-03T01:23:47.410Z,78.14
2022-12-03T01:26:14.402Z,78.05
2022-12-03T01:28:44.498Z,78.32
2022-12-03T01:31:29.871Z,78.19
2022-12-03T01:33:57.020Z,78.20
2022-12-03T01:36:23.970Z,78.28
2022-12-03T01:38:51.019Z,77.84
2022-12-03T01:41:18.409Z,78.53
2022-12-03T01:43:46.182Z,78.22
2022-12-03T01:46:15.950Z,78.10
2022-12-03T01:48:43.019Z,78.01
2022-12-03T01:53:37.103Z,78.51
2022-12-03T01:56:06.438Z,78.00
2022-12-03T01:58:33.499Z,78.13
2022-12-03T02:01:02.899Z,78.53
2022-12-03T02:03:30.115Z,77.90
2022-12-03T02:05:57.150Z,78.55
2022-12-03T02:08:35.520Z,78.73
2022-12-03T02:11:09.300Z,78.58
2022-12-03T02:13:36.589Z,78.95
2022-12-03T02:16:04.757Z,78.53
2022-12-03T02:18:31.921Z,78.26
2022-12-03T02:21:23.473Z,78.20
2022-12-03T02:23:56.420Z,78.72
2022-12-03T02:26:23.705Z,78.79
2022-12-03T02:28:51.450Z,78.34
2022-12-03T02:31:18.462Z,78.93
2022-12-03T02:33:45.742Z,78.58
2022-12-03T02:36:12.999Z,78.58
2022-12-03T02:38:41.551Z,79.14
2022-12-03T02:41:32.468Z,78.90
2022-12-03T02:43:59.579Z,78.33
2022-12-03T02:46:26.672Z,78.73
2022-12-03T02:48:53.821Z,78.56
2022-12-03T02:51:20.858Z,78.83
2022-12-03T02:53:51.100Z,78.49
2022-12-03T02:56:21.588Z,78.59
2022-12-03T02:58:50.430Z,79.13
2022-12-03T03:01:18.109Z,79.08
2022-12-03T03:03:46.063Z,78.88
2022-12-03T03:06:13.822Z,78.57
2022-12-03T03:08:41.960Z,78.62
2022-12-03T03:11:09.018Z,78.35
2022-12-03T03:13:36.899Z,78.81
2022-12-03T03:16:05.661Z,78.79
2022-12-03T03:18:33.902Z,78.60
2022-12-03T03:21:01.660Z,78.74
2022-12-03T03:23:28.619Z,78.37
2022-12-03T03:26:12.541Z,78.89
2022-12-03T03:28:42.380Z,78.76
2022-12-03T03:31:11.001Z,78.45
2022-12-03T03:33:42.105Z,78.61
2022-12-03T03:36:09.658Z,78.83
2022-12-03T03:38:37.282Z,78.36
2022-12-03T03:41:06.423Z,78.19
2022-12-03T03:43:34.943Z,78.82
2022-12-03T03:46:04.277Z,79.18
2022-12-03T03:48:31.961Z,78.73
2022-12-03T03:50:58.965Z,78.49
2022-12-03T03:53:26.220Z,78.59
2022-12-03T03:55:53.379Z,78.53
2022-12-03T03:58:20.500Z,79.00
2022-12-03T04:00:47.752Z,78.64
2022-12-03T04:03:14.747Z,78.96
2022-12-03T04:05:41.920Z,78.92
2022-12-03T04:08:08.951Z,78.89
2022-12-03T04:10:54.362Z,79.48
2022-12-03T04:13:21.343Z,78.98
2022-12-03T04:15:48.419Z,79.20
2022-12-03T04:18:34.059Z,78.93
2022-12-03T04:21:19.845Z,79.05
2022-12-03T04:23:46.900Z,79.29
2022-12-03T04:26:32.243Z,79.16
2022-12-03T04:28:59.260Z,78.89
2022-12-03T04:31:44.697Z,79.10
2022-12-03T04:34:30.252Z,79.05
2022-12-03T04:36:57.300Z,79.46
2022-12-03T04:39:24.240Z,79.43
2022-12-03T04:41:51.159Z,79.07
2022-12-03T04:44:36.646Z,79.05
2022-12-03T04:47:09.744Z,79.39
2022-12-03T04:49:41.871Z,79.18
2022-12-03T04:52:09.921Z,79.09
2022-12-03T04:54:37.258Z,79.11
2022-12-03T04:57:05.130Z,79.69
2022-12-03T04:59:32.919Z,79.21
2022-12-03T05:01:59.933Z,79.09
2022-12-03T05:04:27.180Z,79.20
2022-12-03T05:06:54.257Z,79.55
2022-12-03T05:09:21.402Z,79.16
2022-12-03T05:11:48.398Z,79.23
2022-12-03T05:14:15.470Z,79.45
2022-12-03T05:16:42.504Z,79.25
2022-12-03T05:19:10.238Z,79.57
2022-12-03T05:21:37.165Z,79.34
2022-12-03T05:24:04.620Z,79.25
2022-12-03T05:26:31.569Z,79.07
2022-12-03T05:28:58.642Z,79.23
2022-12-03T05:31:25.775Z,79.72
2022-12-03T05:33:52.997Z,79.32
2022-12-03T05:36:19.967Z,79.24
2022-12-03T05:38:47.077Z,79.38
2022-12-03T05:41:33.498Z,79.08
2022-12-03T05:44:00.805Z,79.55
2022-12-03T05:46:27.976Z,79.68
2022-12-03T05:48:55.350Z,79.68
2022-12-03T05:51:22.337Z,79.46
2022-12-03T05:53:49.424Z,79.50
2022-12-03T05:56:16.329Z,79.58
2022-12-03T05:58:43.420Z,79.47
2022-12-03T06:01:10.360Z,79.28
2022-12-03T06:03:37.558Z,79.43
2022-12-03T06:06:05.063Z,79.61
2022-12-03T06:08:32.012Z,79.54
2022-12-03T06:10:59.078Z,79.94
2022-12-03T06:13:25.977Z,80.19
2022-12-03T06:15:53.148Z,79.56
2022-12-03T06:18:20.266Z,79.85
2022-12-03T06:20:47.458Z,80.02
2022-12-03T06:23:14.370Z,80.02
2022-12-03T06:25:41.723Z,79.98
2022-12-03T06:28:09.822Z,79.82
2022-12-03T06:30:36.882Z,80.05
2022-12-03T06:33:04.164Z,79.62
2022-12-03T06:35:31.638Z,79.87
2022-12-03T06:37:58.732Z,79.78
2022-12-03T06:40:26.820Z,80.02
2022-12-03T06:42:53.778Z,79.79
2022-12-03T06:45:20.831Z,79.72
2022-12-03T06:47:47.864Z,79.99
2022-12-03T06:50:14.971Z,79.96
2022-12-03T06:52:42.647Z,79.81
2022-12-03T06:55:10.500Z,79.78
2022-12-03T06:57:37.542Z,80.33
2022-12-03T07:00:06.628Z,79.97
2022-12-03T07:02:33.658Z,80.25
2022-12-03T07:05:00.819Z,79.83
2022-12-03T07:07:27.834Z,79.96
2022-12-03T07:09:54.942Z,79.70
2022-12-03T07:12:22.052Z,80.04
2022-12-03T07:14:49.040Z,80.09
2022-12-03T07:17:16.047Z,80.08
2022-12-03T07:19:43.003Z,79.84
2022-12-03T07:22:09.988Z,79.82
2022-12-03T07:24:37.062Z,80.07
2022-12-03T07:27:04.007Z,80.29
2022-12-03T07:29:31.119Z,80.11
2022-12-03T07:31:58.060Z,79.90
2022-12-03T07:34:25.199Z,79.93
2022-12-03T07:36:52.564Z,80.42
2022-12-03T07:39:19.658Z,80.24
2022-12-03T07:41:46.898Z,80.27
2022-12-03T07:44:15.085Z,80.07
2022-12-03T07:46:42.777Z,80.29
2022-12-03T07:49:09.908Z,80.75
2022-12-03T07:51:37.197Z,80.11
2022-12-03T07:54:04.747Z,80.44
2022-12-03T07:56:31.925Z,80.07
2022-12-03T07:58:58.873Z,80.21
2022-12-03T08:01:26.048Z,80.24
2022-12-03T08:03:53.195Z,80.22
2022-12-03T08:06:20.120Z,80.36
2022-12-03T08:08:47.229Z,80.31
2022-12-03T08:11:15.268Z,80.51
2022-12-03T08:13:42.918Z,80.46
2022-12-03T08:16:16.703Z,80.46
2022-12-03T08:18:44.781Z,80.36
2022-12-03T08:21:18.877Z,80.76
2022-12-03T08:23:46.337Z,80.16
2022-12-03T08:26:17.817Z,80.24
2022-12-03T08:28:44.830Z,80.54
2022-12-03T08:31:32.839Z,80.61
2022-12-03T08:34:19.983Z,79.82
2022-12-03T08:36:48.720Z,80.10
2022-12-03T08:39:29.259Z,80.69
2022-12-03T08:42:46.639Z,80.82
2022-12-03T08:45:28.176Z,80.73
2022-12-03T08:48:01.326Z,81.06
2022-12-03T08:50:38.839Z,80.47
2022-12-03T08:53:29.931Z,80.22
2022-12-03T08:56:03.912Z,80.73
2022-12-03T08:58:38.028Z,80.49
2022-12-03T09:01:11.030Z,80.22
2022-12-03T09:03:52.825Z,80.49
2022-12-03T09:06:20.164Z,80.26
2022-12-03T09:08:47.378Z,80.54
2022-12-03T09:11:14.774Z,80.81
2022-12-03T09:13:41.845Z,80.73
2022-12-03T09:16:09.251Z,80.77
2022-12-03T09:18:36.406Z,80.68
2022-12-03T09:21:03.743Z,80.59
2022-12-03T09:23:30.810Z,80.46
2022-12-03T09:25:59.371Z,80.90
2022-12-03T09:28:26.519Z,80.42
2022-12-03T09:30:53.459Z,80.87
2022-12-03T09:33:20.699Z,80.23
2022-12-03T09:35:47.711Z,80.25
2022-12-03T09:38:14.757Z,80.38
2022-12-03T09:40:42.261Z,80.64
2022-12-03T09:43:09.548Z,80.56
2022-12-03T09:45:36.573Z,80.67
2022-12-03T09:48:05.342Z,81.31
2022-12-03T09:50:32.904Z,80.48
2022-12-03T09:53:03.203Z,80.70
2022-12-03T09:55:31.238Z,80.80
2022-12-03T09:57:58.340Z,81.08
2022-12-03T10:00:28.297Z,80.71
2022-12-03T10:02:58.372Z,80.92
2022-12-03T10:05:25.429Z,80.85
2022-12-03T10:07:53.279Z,80.95
2022-12-03T10:10:22.967Z,81.06
2022-12-03T10:12:51.344Z,80.50
2022-12-03T10:15:20.463Z,80.73
2022-12-03T10:17:48.588Z,80.38
2022-12-03T10:20:20.275Z,81.04
2022-12-03T10:23:02.424Z,81.20
2022-12-03T10:25:29.437Z,80.41
2022-12-03T10:27:59.466Z,80.79
2022-12-03T10:30:28.833Z,80.89
2022-12-03T10:32:58.260Z,80.82
2022-12-03T10:35:39.581Z,81.25
2022-12-03T10:38:08.353Z,80.88
2022-12-03T10:40:39.473Z,80.93
2022-12-03T10:43:18.295Z,81.31
2022-12-03T10:46:12.444Z,81.35
2022-12-03T10:48:39.683Z,81.53
2022-12-03T10:51:13.829Z,81.25
2022-12-03T10:53:41.722Z,81.49
2022-12-03T10:56:18.402Z,81.34
2022-12-03T10:58:45.395Z,81.01
2022-12-03T11:01:18.085Z,81.09
2022-12-03T11:03:45.834Z,81.26
2022-12-03T11:06:18.481Z,81.15
2022-12-03T11:08:54.707Z,81.52
2022-12-03T11:11:28.389Z,81.35
2022-12-03T11:14:00.133Z,80.88
2022-12-03T11:16:48.138Z,80.62
2022-12-03T11:19:21.990Z,81.40
2022-12-03T11:22:10.046Z,80.69
2022-12-03T11:24:38.981Z,81.18
2022-12-03T11:27:10.698Z,81.25
2022-12-03T11:29:44.974Z,80.76
2022-12-03T11:32:12.199Z,81.30
2022-12-03T11:34:41.078Z,81.18
2022-12-03T11:37:10.954Z,80.83
2022-12-03T11:39:50.576Z,81.01
2022-12-03T11:42:26.512Z,81.65
2022-12-03T11:45:30.875Z,80.75
2022-12-03T11:48:24.053Z,80.70
2022-12-03T11:50:53.463Z,80.99
2022-12-03T11:53:26.531Z,81.44
2022-12-03T11:56:09.333Z,81.00
2022-12-03T11:58:38.930Z,81.26
2022-12-03T12:01:07.753Z,81.16
2022-12-03T12:03:37.399Z,81.45
2022-12-03T12:06:09.316Z,80.84
2022-12-03T12:08:41.598Z,81.52
2022-12-03T12:11:41.826Z,81.54
2022-12-03T12:14:10.757Z,81.51
2022-12-03T12:16:50.676Z,81.31
2022-12-03T12:19:38.475Z,81.18
2022-12-03T12:22:27.391Z,81.63
2022-12-03T12:24:56.548Z,81.38
2022-12-03T12:27:33.010Z,81.33
2022-12-03T12:30:02.496Z,81.41
2022-12-03T12:32:31.881Z,81.09
2022-12-03T12:35:24.694Z,80.85
2022-12-03T12:38:11.861Z,81.17
2022-12-03T12:40:45.430Z,80.90
2022-12-03T12:43:16.463Z,81.42
2022-12-03T12:45:46.353Z,81.46
2022-12-03T12:48:13.282Z,80.63
2022-12-03T12:50:45.805Z,80.89
2022-12-03T12:53:20.085Z,80.84
2022-12-03T12:55:49.052Z,81.77
2022-12-03T12:58:18.981Z,81.09
2022-12-03T13:01:07.997Z,80.99
2022-12-03T13:03:39.210Z,81.21
2022-12-03T13:06:07.116Z,80.75
2022-12-03T13:08:39.091Z,81.24
2022-12-03T13:11:06.950Z,81.30
2022-12-03T13:13:36.302Z,81.45
2022-12-03T13:16:27.721Z,81.39
2022-12-03T13:18:56.167Z,81.15
2022-12-03T13:21:28.118Z,81.34
2022-12-03T13:23:56.944Z,81.17
2022-12-03T13:26:38.267Z,81.51
2022-12-03T13:29:19.303Z,81.53
2022-12-03T13:32:05.462Z,81.34
2022-12-03T13:34:33.938Z,81.71
2022-12-03T13:37:01.703Z,81.43
2022-12-03T13:39:35.475Z,81.05
2022-12-03T13:42:26.960Z,81.66
2022-12-03T13:44:54.354Z,81.56
2022-12-03T13:47:23.172Z,81.79
2022-12-03T13:49:55.448Z,81.57
2022-12-03T13:52:25.474Z,81.65
2022-12-03T13:54:55.098Z,81.79
2022-12-03T13:57:22.746Z,81.76
2022-12-03T13:59:50.084Z,81.14
2022-12-03T14:02:17.338Z,81.61
2022-12-03T14:04:44.433Z,81.13
2022-12-03T14:07:11.395Z,81.51
2022-12-03T14:09:38.494Z,81.84
2022-12-03T14:12:24.433Z,81.50
2022-12-03T14:14:51.661Z,82.26
2022-12-03T14:17:18.657Z,81.67
2022-12-03T14:19:45.717Z,81.55
2022-12-03T14:22:12.778Z,81.66
2022-12-03T14:24:40.178Z,81.35
2022-12-03T14:27:07.313Z,81.70
2022-12-03T14:29:34.863Z,81.90
2022-12-03T14:32:02.299Z,81.79
2022-12-03T14:34:29.589Z,81.30
2022-12-03T14:36:56.837Z,81.84
2022-12-03T14:39:23.832Z,81.96
2022-12-03T14:42:09.608Z,81.78
2022-12-03T14:44:36.677Z,81.54
2022-12-03T14:47:03.735Z,81.53
2022-12-03T14:49:31.037Z,81.49
2022-12-03T14:51:59.753Z,81.76
2022-12-03T14:54:26.821Z,81.65
2022-12-03T14:56:53.853Z,81.51
2022-12-03T14:59:26.002Z,81.27
2022-12-03T15:01:55.030Z,81.31
2022-12-03T15:04:22.536Z,81.58
2022-12-03T15:06:49.573Z,81.46
2022-12-03T15:09:16.880Z,81.19
2022-12-03T15:11:46.358Z,81.42
2022-12-03T15:14:14.208Z,81.71
2022-12-03T15:16:41.336Z,81.37
2022-12-03T15:19:08.671Z,81.24
2022-12-03T15:21:35.979Z,81.30
2022-12-03T15:24:04.281Z,81.11
2022-12-03T15:26:31.425Z,81.31
2022-12-03T15:28:59.161Z,81.34
2022-12-03T15:31:27.353Z,81.24
2022-12-03T15:33:55.233Z,81.49
2022-12-03T15:36:22.638Z,81.17
2022-12-03T15:38:50.623Z,81.04
2022-12-03T15:41:37.054Z,81.01
2022-12-03T15:44:09.582Z,81.12
2022-12-03T15:46:37.417Z,80.70
2022-12-03T15:49:05.501Z,80.69
2022-12-03T15:51:34.258Z,80.75
2022-12-03T15:54:01.739Z,81.04
2022-12-03T15:56:31.287Z,80.74
2022-12-03T15:59:02.634Z,81.07
2022-12-03T16:01:31.625Z,80.87
2022-12-03T16:04:03.641Z,80.89
2022-12-03T16:06:33.992Z,80.61
2022-12-03T16:09:04.605Z,80.79
2022-12-03T16:11:36.465Z,80.47
2022-12-03T16:14:04.351Z,80.72
2022-12-03T16:16:31.563Z,80.86
2022-12-03T16:18:58.891Z,81.02
2022-12-03T16:21:27.309Z,80.53
2022-12-03T16:23:55.323Z,80.50
2022-12-03T16:26:23.291Z,80.95
2022-12-03T16:28:51.457Z,80.76
2022-12-03T16:31:21.931Z,80.69
2022-12-03T16:33:49.921Z,80.54
2022-12-03T16:36:18.039Z,80.85
2022-12-03T16:38:45.225Z,80.35
2022-12-03T16:41:12.504Z,80.68
2022-12-03T16:43:39.700Z,80.82
2022-12-03T16:46:21.288Z,80.58
2022-12-03T16:48:48.892Z,80.77
2022-12-03T16:51:16.612Z,80.58
2022-12-03T16:53:43.721Z,81.09
2022-12-03T16:56:11.096Z,80.55
2022-12-03T16:58:38.189Z,80.46
2022-12-03T17:01:05.562Z,80.55
2022-12-03T17:03:34.221Z,80.76
2022-12-03T17:06:02.198Z,80.11
2022-12-03T17:08:29.575Z,80.64
2022-12-03T17:10:56.826Z,80.58
2022-12-03T17:13:24.092Z,80.19
2022-12-03T17:15:51.734Z,80.15
2022-12-03T17:18:19.074Z,80.03
2022-12-03T17:20:46.238Z,80.04
2022-12-03T17:23:13.829Z,80.05
2022-12-03T17:25:40.850Z,80.16
2022-12-03T17:28:07.833Z,80.66
2022-12-03T17:30:35.381Z,80.66
2022-12-03T17:33:02.534Z,80.30
2022-12-03T17:35:29.750Z,80.33
2022-12-03T17:37:57.491Z,80.32
2022-12-03T17:40:26.001Z,80.19
2022-12-03T17:42:53.630Z,80.02
2022-12-03T17:45:20.764Z,80.66
2022-12-03T17:47:47.889Z,80.00
2022-12-03T17:50:15.045Z,80.04
2022-12-03T17:52:42.120Z,80.40
2022-12-03T17:55:12.196Z,80.47
2022-12-03T17:57:41.447Z,80.37
2022-12-03T18:00:10.062Z,80.19
2022-12-03T18:02:41.005Z,79.91
2022-12-03T18:05:08.721Z,80.15
2022-12-03T18:07:35.761Z,79.98
2022-12-03T18:10:03.079Z,80.20
2022-12-03T18:12:30.074Z,80.12
2022-12-03T18:14:57.137Z,79.89
2022-12-03T18:17:24.323Z,79.96
2022-12-03T18:19:51.696Z,79.99
2022-12-03T18:22:19.005Z,79.86
2022-12-03T18:24:48.879Z,80.08
2022-12-03T18:27:18.519Z,80.55
2022-12-03T18:29:46.134Z,80.45
2022-12-03T18:32:27.798Z,80.30
2022-12-03T18:34:55.872Z,80.08
2022-12-03T18:37:23.742Z,80.14
2022-12-03T18:39:50.914Z,80.13
2022-12-03T18:42:20.596Z,80.28
2022-12-03T18:44:50.051Z,80.33
2022-12-03T18:47:22.374Z,80.05
2022-12-03T18:49:50.314Z,80.09
2022-12-03T18:52:21.220Z,79.80
2022-12-03T18:54:48.816Z,80.05
2022-12-03T18:57:16.045Z,79.93
2022-12-03T18:59:43.084Z,80.39
2022-12-03T19:02:53.857Z,79.85
2022-12-03T19:05:07.098Z,79.55
2022-12-03T19:07:34.072Z,79.88
2022-12-03T19:10:01.276Z,80.33
2022-12-03T19:12:28.261Z,80.21
2022-12-03T19:14:55.233Z,79.76
2022-12-03T19:17:22.387Z,80.25
2022-12-03T19:19:49.538Z,80.32
2022-12-03T19:22:16.696Z,80.46
2022-12-03T19:24:44.081Z,80.12
2022-12-03T19:27:11.282Z,79.80
2022-12-03T19:29:38.343Z,80.37
2022-12-03T19:32:05.789Z,80.23
2022-12-03T19:34:32.813Z,80.37
2022-12-03T19:36:59.860Z,80.09
2022-12-03T19:39:27.024Z,79.80
2022-12-03T19:41:54.133Z,80.44
2022-12-03T19:44:21.099Z,80.44
2022-12-03T19:46:49.971Z,80.29
2022-12-03T19:49:18.766Z,80.21
2022-12-03T19:51:46.049Z,80.22
2022-12-03T19:54:13.575Z,80.12
2022-12-03T19:56:40.701Z,79.76
2022-12-03T19:59:08.197Z,79.80
2022-12-03T20:01:36.637Z,80.18
2022-12-03T20:04:04.490Z,80.11
2022-12-03T20:06:34.166Z,79.81
2022-12-03T20:09:07.484Z,80.26
2022-12-03T20:11:35.404Z,80.15
2022-12-03T20:14:06.072Z,79.93
2022-12-03T20:16:33.586Z,80.23
2022-12-03T20:19:04.150Z,80.16
2022-12-03T20:21:33.573Z,79.94
2022-12-03T20:24:01.330Z,79.90
2022-12-03T20:26:29.759Z,79.63
2022-12-03T20:28:58.294Z,80.11
2022-12-03T20:31:32.235Z,79.99
2022-12-03T20:34:03.491Z,79.87
2022-12-03T20:36:32.471Z,79.98
2022-12-03T20:39:03.558Z,79.85
2022-12-03T20:41:31.760Z,79.68
2022-12-03T20:43:59.396Z,79.93
2022-12-03T20:46:32.482Z,80.21
2022-12-03T20:49:00.898Z,79.66
2022-12-03T20:51:30.299Z,79.52
2022-12-03T20:54:01.372Z,79.79
2022-12-03T20:56:33.788Z,79.77
2022-12-03T20:59:08.060Z,79.94
2022-12-03T21:01:36.572Z,79.85
2022-12-03T21:04:05.830Z,80.23
2022-12-03T21:06:39.774Z,80.12
2022-12-03T21:09:09.683Z,79.66
2022-12-03T21:11:39.208Z,79.83
2022-12-03T21:14:06.859Z,79.71
2022-12-03T21:17:07.957Z,79.92
2022-12-03T21:19:24.573Z,79.83
2022-12-03T21:21:51.792Z,79.87
2022-12-03T21:24:18.759Z,79.69
2022-12-03T21:26:45.725Z,80.19
2022-12-03T21:29:13.251Z,79.80
2022-12-03T21:31:40.289Z,79.98
2022-12-03T21:34:08.858Z,79.82
2022-12-03T21:36:36.068Z,80.01
2022-12-03T21:39:04.130Z,79.71
2022-12-03T21:41:32.250Z,80.11
2022-12-03T21:43:59.524Z,79.65
2022-12-03T21:47:09.617Z,79.97
2022-12-03T21:49:14.822Z,79.92
2022-12-03T21:51:41.935Z,80.01
2022-12-03T21:54:09.012Z,79.45
2022-12-03T21:56:36.087Z,79.99
2022-12-03T21:59:03.197Z,79.97
2022-12-03T22:01:30.438Z,80.05
2022-12-03T22:03:57.476Z,80.03
2022-12-03T22:06:24.608Z,80.08
2022-12-03T22:08:51.666Z,80.08
2022-12-03T22:11:21.373Z,79.96
2022-12-03T22:13:49.110Z,79.63
2022-12-03T22:16:18.810Z,79.82
2022-12-03T22:18:46.060Z,79.65
2022-12-03T22:21:15.665Z,79.71
2022-12-03T22:23:42.951Z,80.01
2022-12-03T22:26:13.387Z,79.64
2022-12-03T22:28:43.764Z,79.76
2022-12-03T22:31:11.437Z,79.60
2022-12-03T22:33:39.277Z,79.95
2022-12-03T22:36:21.106Z,79.92
2022-12-03T22:38:50.128Z,79.74
2022-12-03T22:41:18.175Z,79.68
2022-12-03T22:43:45.985Z,79.71
2022-12-03T22:46:14.266Z,79.77
2022-12-03T22:48:43.587Z,80.04
2022-12-03T22:51:19.677Z,80.07
2022-12-03T22:53:47.650Z,79.54
2022-12-03T22:56:14.982Z,80.32
2022-12-03T22:58:42.277Z,79.78
2022-12-03T23:01:09.711Z,79.46
2022-12-03T23:03:37.407Z,79.75
2022-12-03T23:06:11.785Z,79.74
2022-12-03T23:08:38.808Z,79.57
2022-12-03T23:11:06.076Z,79.77
2022-12-03T23:13:33.172Z,80.05
2022-12-03T23:16:00.372Z,79.68
2022-12-03T23:18:27.656Z,79.78
2022-12-03T23:20:56.008Z,79.95
2022-12-03T23:23:25.091Z,79.62
2022-12-03T23:26:03.031Z,79.69
2022-12-03T23:28:31.802Z,79.87
2022-12-03T23:30:59.539Z,79.73
2022-12-03T23:33:26.940Z,80.01
2022-12-03T23:35:54.011Z,80.10
2022-12-03T23:38:21.049Z,79.73
2022-12-03T23:40:48.603Z,79.65
2022-12-03T23:43:16.246Z,79.82
2022-12-03T23:45:43.404Z,80.45
2022-12-03T23:48:10.558Z,80.01
2022-12-03T23:50:41.480Z,80.06
2022-12-03T23:53:09.241Z,79.85
2022-12-03T23:55:39.981Z,80.13
2022-12-03T23:58:07.102Z,79.95
